Latest Weather Observations for Fawkner Beacon

IDV60801

Issued at 3:52 pm EDT Saturday 22 February 2020 (issued every 10 minutes, with the page automatically refreshed every 10 minutes)

About weather observations | Map of weather stations | Latest weather observations for VIC | Other Formats
Station Details ID: 086376 Name: FAWKNER BEACON Lat: -37.95 Lon: 144.93 Height: 17.0 m
Data from the previous 72 hours. | See also: Recent months at Fawkner Beacon
Date/Time
EDT
Temp
°C
App
Temp
°C
Dew
Point
°C
Rel
Hum
%
Delta-T
°C
Wind Press
QNH
hPa
Press
MSL
hPa
Rain since
9am
mm
Dir  Spd
km/h
Gust
km/h
Spd
kts
Gust
kts
22/03:30pm - - - - - SSW 32 39 17 21 - - -
22/03:00pm - - - - - SSW 28 32 15 17 - - -
22/02:30pm - - - - - SSW 26 32 14 17 - - -
22/02:00pm - - - - - S 22 28 12 15 - - -
22/01:30pm - - - - - S 17 22 9 12 - - -
22/01:00pm - - - - - SSW 7 11 4 6 - - -
22/12:30pm - - - - - E 6 7 3 4 - - -
22/12:00pm - - - - - E 7 11 4 6 - - -
22/11:30am - - - - - SSE 13 20 7 11 - - -
22/11:00am - - - - - ESE 11 17 6 9 - - -
22/10:30am - - - - - E 13 17 7 9 - - -
22/10:00am - - - - - E 17 22 9 12 - - -
22/09:30am - - - - - ESE 20 24 11 13 - - -
22/09:00am - - - - - SE 22 26 12 14 - - -
22/08:30am - - - - - ESE 22 32 12 17 - - -
22/08:00am - - - - - ESE 24 30 13 16 - - -
22/07:30am - - - - - ESE 24 32 13 17 - - -
22/07:00am - - - - - ESE 24 30 13 16 - - -
22/06:30am - - - - - ESE 24 30 13 16 - - -
22/06:00am - - - - - ESE 24 32 13 17 - - -
22/05:30am - - - - - ESE 24 30 13 16 - - -
22/05:00am - - - - - ESE 22 28 12 15 - - -
22/04:30am - - - - - ESE 26 32 14 17 - - -
22/04:00am - - - - - ESE 26 33 14 18 - - -
22/03:30am - - - - - ESE 28 33 15 18 - - -
22/03:00am - - - - - ESE 26 32 14 17 - - -
22/02:30am - - - - - ESE 26 32 14 17 - - -
22/02:00am - - - - - SE 26 33 14 18 - - -
22/01:30am - - - - - ESE 28 33 15 18 - - -
22/01:00am - - - - - ESE 28 35 15 19 - - -
22/12:30am - - - - - ESE 28 35 15 19 - - -
22/12:00am - - - - - SE 28 35 15 19 - - -
 
Date/Time
EDT
Temp
°C
App
Temp
°C
Dew
Point
°C
Rel
Hum
%
Delta-T
°C
Wind Press
QNH
hPa
Press
MSL
hPa
Rain since
9am
mm
Dir  Spd
km/h
Gust
km/h
Spd
kts
Gust
kts
21/11:30pm - - - - - SE 32 41 17 22 - - -
21/11:00pm - - - - - SE 28 35 15 19 - - -
21/10:30pm - - - - - SE 30 35 16 19 - - -
21/10:00pm - - - - - SE 28 35 15 19 - - -
21/09:30pm - - - - - SE 32 41 17 22 - - -
21/09:00pm - - - - - SE 32 41 17 22 - - -
21/08:30pm - - - - - SE 33 43 18 23 - - -
21/08:00pm - - - - - SSE 32 41 17 22 - - -
21/07:30pm - - - - - SSE 30 39 16 21 - - -
21/07:00pm - - - - - SSE 32 41 17 22 - - -
21/06:30pm - - - - - SSE 33 39 18 21 - - -
21/06:00pm - - - - - SSE 32 41 17 22 - - -
21/05:30pm - - - - - S 30 39 16 21 - - -
21/05:00pm - - - - - S 32 39 17 21 - - -
21/04:30pm - - - - - S 28 32 15 17 - - -
21/04:00pm - - - - - S 28 35 15 19 - - -
21/03:30pm - - - - - S 30 35 16 19 - - -
21/03:00pm - - - - - S 28 33 15 18 - - -
21/02:30pm - - - - - SSE 28 33 15 18 - - -
21/02:00pm - - - - - SSE 28 35 15 19 - - -
21/01:30pm - - - - - SSE 30 35 16 19 - - -
21/01:00pm - - - - - SSE 26 35 14 19 - - -
21/12:30pm - - - - - SSE 32 41 17 22 - - -
21/12:00pm - - - - - SSE 24 30 13 16 - - -
21/11:30am - - - - - SSE 24 30 13 16 - - -
21/11:00am - - - - - S 35 43 19 23 - - -
21/10:30am - - - - - SSE 20 30 11 16 - - -
21/10:00am - - - - - SSE 19 26 10 14 - - -
21/09:30am - - - - - SSE 22 28 12 15 - - -
21/09:00am - - - - - SSE 26 33 14 18 - - -
21/08:30am - - - - - SSE 24 30 13 16 - - -
21/08:00am - - - - - SSE 24 32 13 17 - - -
21/07:30am - - - - - SSW 20 26 11 14 - - -
21/07:00am - - - - - SSW 20 28 11 15 - - -
21/06:30am - - - - - SSE 26 35 14 19 - - -
21/06:00am - - - - - WSW 26 30 14 16 - - -
21/05:30am - - - - - SW 28 32 15 17 - - -
21/05:00am - - - - - SSW 32 39 17 21 - - -
21/04:30am - - - - - SW 24 28 13 15 - - -
21/04:00am - - - - - SW 24 32 13 17 - - -
21/03:30am - - - - - SW 19 26 10 14 - - -
21/03:00am - - - - - SW 22 28 12 15 - - -
21/02:30am - - - - - SSW 24 32 13 17 - - -
21/02:00am - - - - - SW 28 35 15 19 - - -
21/01:30am - - - - - SSW 24 30 13 16 - - -
21/01:00am - - - - - SSW 30 39 16 21 - - -
21/12:30am - - - - - SSE 30 35 16 19 - - -
21/12:00am - - - - - S 30 39 16 21 - - -
 
Date/Time
EDT
Temp
°C
App
Temp
°C
Dew
Point
°C
Rel
Hum
%
Delta-T
°C
Wind Press
QNH
hPa
Press
MSL
hPa
Rain since
9am
mm
Dir  Spd
km/h
Gust
km/h
Spd
kts
Gust
kts
20/11:30pm - - - - - S 32 39 17 21 - - -
20/11:00pm - - - - - S 35 46 19 25 - - -
20/10:30pm - - - - - S 32 39 17 21 - - -
20/10:00pm - - - - - SSW 32 41 17 22 - - -
20/09:30pm - - - - - S 32 39 17 21 - - -
20/09:00pm - - - - - S 30 39 16 21 - - -
20/08:30pm - - - - - S 28 33 15 18 - - -
20/08:00pm - - - - - S 28 33 15 18 - - -
20/07:30pm - - - - - S 24 30 13 16 - - -
20/07:00pm - - - - - SSE 22 32 12 17 - - -
20/06:30pm - - - - - SSE 20 28 11 15 - - -
20/06:00pm - - - - - SSE 22 28 12 15 - - -
20/05:30pm - - - - - S 22 26 12 14 - - -
20/05:00pm - - - - - S 20 24 11 13 - - -
20/04:30pm - - - - - S 19 24 10 13 - - -
20/04:00pm - - - - - S 20 24 11 13 - - -
20/03:30pm - - - - - S 20 26 11 14 - - -
20/03:00pm - - - - - S 28 33 15 18 - - -
20/02:30pm - - - - - S 24 30 13 16 - - -
20/02:00pm - - - - - S 24 32 13 17 - - -
20/01:30pm - - - - - S 26 32 14 17 - - -
20/01:00pm - - - - - SSW 24 30 13 16 - - -
20/12:30pm - - - - - S 22 30 12 16 - - -
20/12:00pm - - - - - S 24 30 13 16 - - -
20/11:30am - - - - - S 26 33 14 18 - - -
20/11:00am - - - - - S 28 35 15 19 - - -
20/10:30am - - - - - S 28 33 15 18 - - -
20/10:00am - - - - - S 30 41 16 22 - - -
20/09:30am - - - - - S 28 35 15 19 - - -
20/09:00am - - - - - S 28 35 15 19 - - -
20/08:30am - - - - - S 30 39 16 21 - - -
20/08:00am - - - - - S 28 33 15 18 - - -
20/07:30am - - - - - S 33 43 18 23 - - -
20/07:00am - - - - - S 32 39 17 21 - - -
20/06:30am - - - - - SSW 30 39 16 21 - - -
20/06:00am - - - - - SSW 30 41 16 22 - - -
20/05:30am - - - - - SSW 32 41 17 22 - - -
20/05:00am - - - - - SSW 32 41 17 22 - - -
20/04:30am - - - - - S 35 43 19 23 - - -
20/04:00am - - - - - SSW 37 46 20 25 - - -
20/03:30am - - - - - SSW 39 46 21 25 - - -
20/03:00am - - - - - SSW 37 43 20 23 - - -
20/02:30am - - - - - SW 32 43 17 23 - - -
20/02:00am - - - - - SSW 37 44 20 24 - - -
20/01:30am - - - - - SSW 35 43 19 23 - - -
20/01:00am - - - - - SSW 39 48 21 26 - - -
20/12:30am - - - - - S 35 43 19 23 - - -
20/12:00am - - - - - SSW 35 43 19 23 - - -
 
Date/Time
EDT
Temp
°C
App
Temp
°C
Dew
Point
°C
Rel
Hum
%
Delta-T
°C
Wind Press
QNH
hPa
Press
MSL
hPa
Rain since
9am
mm
Dir  Spd
km/h
Gust
km/h
Spd
kts
Gust
kts
19/11:30pm - - - - - S 39 46 21 25 - - -
19/11:00pm - - - - - SSW 43 52 23 28 - - -
19/10:30pm - - - - - SSW 43 50 23 27 - - -
19/10:00pm - - - - - S 43 52 23 28 - - -
19/09:30pm - - - - - S 44 59 24 32 - - -
19/09:09pm - - - - - SSW 48 63 26 34 - - -
19/09:00pm - - - - - SSW 56 65 30 35 - - -
19/08:30pm - - - - - SSW 44 50 24 27 - - -
19/08:00pm - - - - - SSW 44 54 24 29 - - -
19/07:30pm - - - - - SSW 43 50 23 27 - - -
19/07:00pm - - - - - SSW 39 48 21 26 - - -
19/06:30pm - - - - - SSW 44 52 24 28 - - -
19/06:00pm - - - - - SSW 43 50 23 27 - - -
19/05:30pm - - - - - SSW 44 52 24 28 - - -
19/05:00pm - - - - - SSW 46 57 25 31 - - -
19/04:30pm - - - - - SSW 46 54 25 29 - - -
19/04:00pm - - - - - SSW 46 61 25 33 - - -

Other formats

Comma delimited format used in spreadsheet applications
http://www.bom.gov.au/fwo/IDV60801/IDV60801.95872.axf

JavaScript Object Notation format (JSON) in row-major order
http://www.bom.gov.au/fwo/IDV60801/IDV60801.95872.json

Data quality

Most of these data are generated automatically and are frequently updated. Quality checks on data are not normally performed. It is possible for incorrect values to appear. Refer to information at About Latest Weather Observations and please check the disclaimer before using these data.